sensor_id;sensor_type;location;lat;lon;timestamp;temperature;humidity
22002;DHT22;11165;51.278;12.398;2022-07-24T00:01:28;15.10;99.90
22002;DHT22;11165;51.278;12.398;2022-07-24T00:03:54;15.00;99.90
22002;DHT22;11165;51.278;12.398;2022-07-24T00:06:19;14.90;99.90
22002;DHT22;11165;51.278;12.398;2022-07-24T00:08:45;14.90;99.90
22002;DHT22;11165;51.278;12.398;2022-07-24T00:11:11;14.90;99.90
22002;DHT22;11165;51.278;12.398;2022-07-24T00:13:37;14.90;99.90
22002;DHT22;11165;51.278;12.398;2022-07-24T00:16:02;14.90;99.90
22002;DHT22;11165;51.278;12.398;2022-07-24T00:18:28;14.80;99.90
22002;DHT22;11165;51.278;12.398;2022-07-24T00:20:54;14.80;99.90
22002;DHT22;11165;51.278;12.398;2022-07-24T00:23:19;14.80;99.90
22002;DHT22;11165;51.278;12.398;2022-07-24T00:25:46;14.70;99.90
22002;DHT22;11165;51.278;12.398;2022-07-24T00:28:12;14.60;99.90
22002;DHT22;11165;51.278;12.398;2022-07-24T00:30:38;14.60;99.90
22002;DHT22;11165;51.278;12.398;2022-07-24T00:33:03;14.60;99.90
22002;DHT22;11165;51.278;12.398;2022-07-24T00:35:29;14.60;99.90
22002;DHT22;11165;51.278;12.398;2022-07-24T00:37:54;14.50;99.90
22002;DHT22;11165;51.278;12.398;2022-07-24T00:40:21;14.50;99.90
22002;DHT22;11165;51.278;12.398;2022-07-24T00:42:47;14.50;99.90
22002;DHT22;11165;51.278;12.398;2022-07-24T00:45:13;14.50;99.90
22002;DHT22;11165;51.278;12.398;2022-07-24T00:47:38;14.50;99.90
22002;DHT22;11165;51.278;12.398;2022-07-24T00:50:04;14.40;99.90
22002;DHT22;11165;51.278;12.398;2022-07-24T00:52:31;14.40;99.90
22002;DHT22;11165;51.278;12.398;2022-07-24T00:54:57;14.40;99.90
22002;DHT22;11165;51.278;12.398;2022-07-24T00:57:23;14.30;99.90
22002;DHT22;11165;51.278;12.398;2022-07-24T00:59:48;14.20;99.90
22002;DHT22;11165;51.278;12.398;2022-07-24T01:02:14;14.20;99.90
22002;DHT22;11165;51.278;12.398;2022-07-24T01:04:39;14.30;99.90
22002;DHT22;11165;51.278;12.398;2022-07-24T01:07:07;14.20;99.90
22002;DHT22;11165;51.278;12.398;2022-07-24T01:09:33;14.20;99.90
22002;DHT22;11165;51.278;12.398;2022-07-24T01:11:59;14.20;99.90
22002;DHT22;11165;51.278;12.398;2022-07-24T01:14:25;14.30;99.90
22002;DHT22;11165;51.278;12.398;2022-07-24T01:16:51;14.20;99.90
22002;DHT22;11165;51.278;12.398;2022-07-24T01:19:17;14.20;99.90
22002;DHT22;11165;51.278;12.398;2022-07-24T01:21:47;14.20;99.90
22002;DHT22;11165;51.278;12.398;2022-07-24T01:24:13;14.10;99.90
22002;DHT22;11165;51.278;12.398;2022-07-24T01:26:39;14.10;99.90
22002;DHT22;11165;51.278;12.398;2022-07-24T01:29:05;14.10;99.90
22002;DHT22;11165;51.278;12.398;2022-07-24T01:31:30;14.00;99.90
22002;DHT22;11165;51.278;12.398;2022-07-24T01:33:56;14.10;99.90
22002;DHT22;11165;51.278;12.398;2022-07-24T01:36:21;14.00;99.90
22002;DHT22;11165;51.278;12.398;2022-07-24T01:38:47;13.90;99.90
22002;DHT22;11165;51.278;12.398;2022-07-24T01:41:12;13.90;99.90
22002;DHT22;11165;51.278;12.398;2022-07-24T01:43:38;13.90;99.90
22002;DHT22;11165;51.278;12.398;2022-07-24T01:46:04;13.90;99.90
22002;DHT22;11165;51.278;12.398;2022-07-24T01:48:30;13.90;99.90
22002;DHT22;11165;51.278;12.398;2022-07-24T01:50:55;13.90;99.90
22002;DHT22;11165;51.278;12.398;2022-07-24T01:53:21;13.80;99.90
22002;DHT22;11165;51.278;12.398;2022-07-24T01:55:49;13.80;99.90
22002;DHT22;11165;51.278;12.398;2022-07-24T01:58:15;13.90;99.90
22002;DHT22;11165;51.278;12.398;2022-07-24T02:00:40;13.80;99.90
22002;DHT22;11165;51.278;12.398;2022-07-24T02:03:06;13.80;99.90
22002;DHT22;11165;51.278;12.398;2022-07-24T02:05:32;13.80;99.90
22002;DHT22;11165;51.278;12.398;2022-07-24T02:07:58;13.70;99.90
22002;DHT22;11165;51.278;12.398;2022-07-24T02:10:25;13.80;99.90
22002;DHT22;11165;51.278;12.398;2022-07-24T02:12:51;13.70;99.90
22002;DHT22;11165;51.278;12.398;2022-07-24T02:15:17;13.70;99.90
22002;DHT22;11165;51.278;12.398;2022-07-24T02:17:50;13.60;99.90
22002;DHT22;11165;51.278;12.398;2022-07-24T02:20:16;13.60;99.90
22002;DHT22;11165;51.278;12.398;2022-07-24T02:22:42;13.60;99.90
22002;DHT22;11165;51.278;12.398;2022-07-24T02:25:08;13.50;99.90
22002;DHT22;11165;51.278;12.398;2022-07-24T02:27:34;13.50;99.90
22002;DHT22;11165;51.278;12.398;2022-07-24T02:29:59;13.50;99.90
22002;DHT22;11165;51.278;12.398;2022-07-24T02:32:25;13.50;99.90
22002;DHT22;11165;51.278;12.398;2022-07-24T02:34:51;13.50;99.90
22002;DHT22;11165;51.278;12.398;2022-07-24T02:37:17;13.40;99.90
22002;DHT22;11165;51.278;12.398;2022-07-24T02:39:43;13.50;99.90
22002;DHT22;11165;51.278;12.398;2022-07-24T02:42:08;13.50;99.90
22002;DHT22;11165;51.278;12.398;2022-07-24T02:44:34;13.40;99.90
22002;DHT22;11165;51.278;12.398;2022-07-24T02:46:59;13.40;99.90
22002;DHT22;11165;51.278;12.398;2022-07-24T02:49:25;13.30;99.90
22002;DHT22;11165;51.278;12.398;2022-07-24T02:51:50;13.40;99.90
22002;DHT22;11165;51.278;12.398;2022-07-24T02:54:16;13.30;99.90
22002;DHT22;11165;51.278;12.398;2022-07-24T02:56:41;13.30;99.90
22002;DHT22;11165;51.278;12.398;2022-07-24T02:59:07;13.40;99.90
22002;DHT22;11165;51.278;12.398;2022-07-24T03:01:32;13.30;99.90
22002;DHT22;11165;51.278;12.398;2022-07-24T03:03:58;13.30;99.90
22002;DHT22;11165;51.278;12.398;2022-07-24T03:06:23;13.30;99.90
22002;DHT22;11165;51.278;12.398;2022-07-24T03:08:49;13.30;99.90
22002;DHT22;11165;51.278;12.398;2022-07-24T03:11:14;13.30;99.90
22002;DHT22;11165;51.278;12.398;2022-07-24T03:13:40;13.20;99.90
22002;DHT22;11165;51.278;12.398;2022-07-24T03:16:06;13.30;99.90
22002;DHT22;11165;51.278;12.398;2022-07-24T03:18:31;13.30;99.90
22002;DHT22;11165;51.278;12.398;2022-07-24T03:20:57;13.30;99.90
22002;DHT22;11165;51.278;12.398;2022-07-24T03:23:22;13.20;99.90
22002;DHT22;11165;51.278;12.398;2022-07-24T03:25:48;13.20;99.90
22002;DHT22;11165;51.278;12.398;2022-07-24T03:28:14;13.20;99.90
22002;DHT22;11165;51.278;12.398;2022-07-24T03:30:40;13.20;99.90
22002;DHT22;11165;51.278;12.398;2022-07-24T03:33:05;13.20;99.90
22002;DHT22;11165;51.278;12.398;2022-07-24T03:35:31;13.20;99.90
22002;DHT22;11165;51.278;12.398;2022-07-24T03:37:56;13.20;99.90
22002;DHT22;11165;51.278;12.398;2022-07-24T03:40:23;13.20;99.90
22002;DHT22;11165;51.278;12.398;2022-07-24T03:42:48;13.20;99.90
22002;DHT22;11165;51.278;12.398;2022-07-24T03:45:14;13.20;99.90
22002;DHT22;11165;51.278;12.398;2022-07-24T03:47:40;13.20;99.90
22002;DHT22;11165;51.278;12.398;2022-07-24T03:50:05;13.20;99.90
22002;DHT22;11165;51.278;12.398;2022-07-24T03:52:31;13.20;99.90
22002;DHT22;11165;51.278;12.398;2022-07-24T03:54:57;13.20;99.90
22002;DHT22;11165;51.278;12.398;2022-07-24T03:57:22;13.20;99.90
22002;DHT22;11165;51.278;12.398;2022-07-24T03:59:48;13.30;99.90
22002;DHT22;11165;51.278;12.398;2022-07-24T04:02:14;13.40;99.90
22002;DHT22;11165;51.278;12.398;2022-07-24T04:04:40;13.50;99.90
22002;DHT22;11165;51.278;12.398;2022-07-24T04:07:06;13.50;99.90
22002;DHT22;11165;51.278;12.398;2022-07-24T04:09:31;13.60;99.90
22002;DHT22;11165;51.278;12.398;2022-07-24T04:11:57;13.70;99.90
22002;DHT22;11165;51.278;12.398;2022-07-24T04:14:22;13.70;99.90
22002;DHT22;11165;51.278;12.398;2022-07-24T04:16:48;13.80;99.90
22002;DHT22;11165;51.278;12.398;2022-07-24T04:19:14;13.70;99.90
22002;DHT22;11165;51.278;12.398;2022-07-24T04:21:40;13.80;99.90
22002;DHT22;11165;51.278;12.398;2022-07-24T04:24:06;13.90;99.90
22002;DHT22;11165;51.278;12.398;2022-07-24T04:26:32;14.00;99.90
22002;DHT22;11165;51.278;12.398;2022-07-24T04:28:57;14.00;99.90
22002;DHT22;11165;51.278;12.398;2022-07-24T04:31:23;14.00;99.90
22002;DHT22;11165;51.278;12.398;2022-07-24T04:33:48;14.10;99.90
22002;DHT22;11165;51.278;12.398;2022-07-24T04:36:14;14.20;99.90
22002;DHT22;11165;51.278;12.398;2022-07-24T04:38:39;14.20;99.90
22002;DHT22;11165;51.278;12.398;2022-07-24T04:41:05;14.30;99.90
22002;DHT22;11165;51.278;12.398;2022-07-24T04:43:31;14.40;99.90
22002;DHT22;11165;51.278;12.398;2022-07-24T04:45:56;14.60;99.90
22002;DHT22;11165;51.278;12.398;2022-07-24T04:48:22;14.60;99.90
22002;DHT22;11165;51.278;12.398;2022-07-24T04:50:47;14.60;99.90
22002;DHT22;11165;51.278;12.398;2022-07-24T04:53:13;14.70;99.90
22002;DHT22;11165;51.278;12.398;2022-07-24T04:55:38;14.90;99.90
22002;DHT22;11165;51.278;12.398;2022-07-24T04:58:04;15.00;99.90
22002;DHT22;11165;51.278;12.398;2022-07-24T05:00:29;15.20;99.90
22002;DHT22;11165;51.278;12.398;2022-07-24T05:02:55;15.20;99.90
22002;DHT22;11165;51.278;12.398;2022-07-24T05:05:21;15.30;99.90
22002;DHT22;11165;51.278;12.398;2022-07-24T05:07:46;15.40;99.90
22002;DHT22;11165;51.278;12.398;2022-07-24T05:10:12;15.50;99.90
22002;DHT22;11165;51.278;12.398;2022-07-24T05:12:37;15.70;99.90
22002;DHT22;11165;51.278;12.398;2022-07-24T05:15:04;15.90;99.90
22002;DHT22;11165;51.278;12.398;2022-07-24T05:17:30;16.00;99.90
22002;DHT22;11165;51.278;12.398;2022-07-24T05:19:56;16.10;99.90
22002;DHT22;11165;51.278;12.398;2022-07-24T05:22:21;16.30;99.90
22002;DHT22;11165;51.278;12.398;2022-07-24T05:24:47;16.40;99.90
22002;DHT22;11165;51.278;12.398;2022-07-24T05:27:12;16.50;99.90
22002;DHT22;11165;51.278;12.398;2022-07-24T05:29:38;16.70;99.90
22002;DHT22;11165;51.278;12.398;2022-07-24T05:32:04;16.80;99.90
22002;DHT22;11165;51.278;12.398;2022-07-24T05:34:30;16.80;99.90
22002;DHT22;11165;51.278;12.398;2022-07-24T05:36:55;16.90;99.90
22002;DHT22;11165;51.278;12.398;2022-07-24T05:39:21;16.90;99.90
22002;DHT22;11165;51.278;12.398;2022-07-24T05:41:46;17.00;99.90
22002;DHT22;11165;51.278;12.398;2022-07-24T05:44:12;17.20;99.90
22002;DHT22;11165;51.278;12.398;2022-07-24T05:46:37;17.30;99.90
22002;DHT22;11165;51.278;12.398;2022-07-24T05:49:03;17.40;99.90
22002;DHT22;11165;51.278;12.398;2022-07-24T05:51:28;17.50;99.90
22002;DHT22;11165;51.278;12.398;2022-07-24T05:53:55;17.60;99.90
22002;DHT22;11165;51.278;12.398;2022-07-24T05:56:20;17.70;99.90
22002;DHT22;11165;51.278;12.398;2022-07-24T05:58:46;17.80;99.90
22002;DHT22;11165;51.278;12.398;2022-07-24T06:01:11;18.00;99.90
22002;DHT22;11165;51.278;12.398;2022-07-24T06:03:37;17.80;99.90
22002;DHT22;11165;51.278;12.398;2022-07-24T06:06:06;17.80;99.90
22002;DHT22;11165;51.278;12.398;2022-07-24T06:08:31;17.70;99.90
22002;DHT22;11165;51.278;12.398;2022-07-24T06:10:57;17.80;99.90
22002;DHT22;11165;51.278;12.398;2022-07-24T06:13:22;18.00;99.90
22002;DHT22;11165;51.278;12.398;2022-07-24T06:15:48;18.00;99.90
22002;DHT22;11165;51.278;12.398;2022-07-24T06:18:13;18.40;99.90
22002;DHT22;11165;51.278;12.398;2022-07-24T06:20:39;18.80;99.90
22002;DHT22;11165;51.278;12.398;2022-07-24T06:23:05;18.80;99.90
22002;DHT22;11165;51.278;12.398;2022-07-24T06:25:30;18.90;99.90
22002;DHT22;11165;51.278;12.398;2022-07-24T06:27:56;19.10;99.90
22002;DHT22;11165;51.278;12.398;2022-07-24T06:30:27;19.00;99.90
22002;DHT22;11165;51.278;12.398;2022-07-24T06:32:54;19.50;99.90
22002;DHT22;11165;51.278;12.398;2022-07-24T06:35:20;19.40;99.90
22002;DHT22;11165;51.278;12.398;2022-07-24T06:37:46;19.40;99.90
22002;DHT22;11165;51.278;12.398;2022-07-24T06:40:12;19.20;99.90
22002;DHT22;11165;51.278;12.398;2022-07-24T06:42:38;19.50;99.90
22002;DHT22;11165;51.278;12.398;2022-07-24T06:45:04;19.80;99.90
22002;DHT22;11165;51.278;12.398;2022-07-24T06:47:30;19.50;99.90
22002;DHT22;11165;51.278;12.398;2022-07-24T06:49:56;19.30;99.90
22002;DHT22;11165;51.278;12.398;2022-07-24T06:52:22;19.40;99.90
22002;DHT22;11165;51.278;12.398;2022-07-24T06:54:48;20.00;99.90
22002;DHT22;11165;51.278;12.398;2022-07-24T06:57:14;20.10;99.90
22002;DHT22;11165;51.278;12.398;2022-07-24T06:59:40;19.60;99.90
22002;DHT22;11165;51.278;12.398;2022-07-24T07:02:06;20.00;99.90
22002;DHT22;11165;51.278;12.398;2022-07-24T07:04:31;20.50;99.90
22002;DHT22;11165;51.278;12.398;2022-07-24T07:06:57;20.60;99.90
22002;DHT22;11165;51.278;12.398;2022-07-24T07:09:22;21.90;99.90
22002;DHT22;11165;51.278;12.398;2022-07-24T07:11:48;23.10;99.90
22002;DHT22;11165;51.278;12.398;2022-07-24T07:14:14;22.80;99.90
22002;DHT22;11165;51.278;12.398;2022-07-24T07:16:39;23.40;99.90
22002;DHT22;11165;51.278;12.398;2022-07-24T07:19:05;23.80;99.90
22002;DHT22;11165;51.278;12.398;2022-07-24T07:21:31;23.80;99.90
22002;DHT22;11165;51.278;12.398;2022-07-24T07:23:56;24.70;99.90
22002;DHT22;11165;51.278;12.398;2022-07-24T07:26:22;24.30;99.90
22002;DHT22;11165;51.278;12.398;2022-07-24T07:28:48;24.90;99.90
22002;DHT22;11165;51.278;12.398;2022-07-24T07:31:13;25.40;99.00
22002;DHT22;11165;51.278;12.398;2022-07-24T07:33:39;25.50;98.20
22002;DHT22;11165;51.278;12.398;2022-07-24T07:36:05;25.70;99.80
22002;DHT22;11165;51.278;12.398;2022-07-24T07:38:31;25.10;98.40
22002;DHT22;11165;51.278;12.398;2022-07-24T07:40:56;25.70;99.30
22002;DHT22;11165;51.278;12.398;2022-07-24T07:43:22;26.50;94.50
22002;DHT22;11165;51.278;12.398;2022-07-24T07:45:48;26.70;94.50
22002;DHT22;11165;51.278;12.398;2022-07-24T07:48:13;26.30;94.10
22002;DHT22;11165;51.278;12.398;2022-07-24T07:50:39;26.20;92.00
22002;DHT22;11165;51.278;12.398;2022-07-24T07:53:04;25.50;93.20
22002;DHT22;11165;51.278;12.398;2022-07-24T07:55:30;24.90;93.40
22002;DHT22;11165;51.278;12.398;2022-07-24T07:57:56;24.10;96.40
22002;DHT22;11165;51.278;12.398;2022-07-24T08:00:21;24.10;98.60
22002;DHT22;11165;51.278;12.398;2022-07-24T08:02:47;25.40;98.80
22002;DHT22;11165;51.278;12.398;2022-07-24T08:05:12;27.30;90.30
22002;DHT22;11165;51.278;12.398;2022-07-24T08:07:38;28.10;85.50
22002;DHT22;11165;51.278;12.398;2022-07-24T08:10:05;28.30;81.00
22002;DHT22;11165;51.278;12.398;2022-07-24T08:12:31;27.90;83.20
22002;DHT22;11165;51.278;12.398;2022-07-24T08:14:56;26.70;84.00
22002;DHT22;11165;51.278;12.398;2022-07-24T08:17:22;25.60;84.10
22002;DHT22;11165;51.278;12.398;2022-07-24T08:19:47;25.40;89.70
22002;DHT22;11165;51.278;12.398;2022-07-24T08:22:13;25.10;88.20
22002;DHT22;11165;51.278;12.398;2022-07-24T08:24:39;24.70;90.40
22002;DHT22;11165;51.278;12.398;2022-07-24T08:27:05;24.90;90.40
22002;DHT22;11165;51.278;12.398;2022-07-24T08:29:31;26.70;82.60
22002;DHT22;11165;51.278;12.398;2022-07-24T08:31:57;27.40;76.40
22002;DHT22;11165;51.278;12.398;2022-07-24T08:34:22;27.70;76.00
22002;DHT22;11165;51.278;12.398;2022-07-24T08:36:49;27.90;73.40
22002;DHT22;11165;51.278;12.398;2022-07-24T08:39:15;26.70;78.50
22002;DHT22;11165;51.278;12.398;2022-07-24T08:41:41;26.20;82.90
22002;DHT22;11165;51.278;12.398;2022-07-24T08:44:08;26.30;78.60
22002;DHT22;11165;51.278;12.398;2022-07-24T08:46:39;25.90;79.90
22002;DHT22;11165;51.278;12.398;2022-07-24T08:49:11;26.00;83.50
22002;DHT22;11165;51.278;12.398;2022-07-24T08:51:39;27.60;84.90
22002;DHT22;11165;51.278;12.398;2022-07-24T08:54:06;28.50;76.90
22002;DHT22;11165;51.278;12.398;2022-07-24T08:56:33;27.10;75.80
22002;DHT22;11165;51.278;12.398;2022-07-24T08:58:59;26.10;79.40
22002;DHT22;11165;51.278;12.398;2022-07-24T09:01:29;26.00;81.00
22002;DHT22;11165;51.278;12.398;2022-07-24T09:04:00;26.40;80.10
22002;DHT22;11165;51.278;12.398;2022-07-24T09:06:28;27.50;79.10
22002;DHT22;11165;51.278;12.398;2022-07-24T09:09:02;29.10;75.10
22002;DHT22;11165;51.278;12.398;2022-07-24T09:11:29;28.20;74.50
22002;DHT22;11165;51.278;12.398;2022-07-24T09:14:00;28.90;73.30
22002;DHT22;11165;51.278;12.398;2022-07-24T09:16:46;29.20;70.40
22002;DHT22;11165;51.278;12.398;2022-07-24T09:19:12;27.40;73.40
22002;DHT22;11165;51.278;12.398;2022-07-24T09:21:41;26.80;76.00
22002;DHT22;11165;51.278;12.398;2022-07-24T09:24:19;27.90;75.30
22002;DHT22;11165;51.278;12.398;2022-07-24T09:26:55;29.30;70.30
22002;DHT22;11165;51.278;12.398;2022-07-24T09:29:23;29.90;69.10
22002;DHT22;11165;51.278;12.398;2022-07-24T09:31:58;29.30;67.00
22002;DHT22;11165;51.278;12.398;2022-07-24T09:34:25;27.90;67.70
22002;DHT22;11165;51.278;12.398;2022-07-24T09:36:59;28.10;71.30
22002;DHT22;11165;51.278;12.398;2022-07-24T09:39:26;27.50;70.60
22002;DHT22;11165;51.278;12.398;2022-07-24T09:41:53;26.80;74.90
22002;DHT22;11165;51.278;12.398;2022-07-24T09:44:19;26.60;74.90
22002;DHT22;11165;51.278;12.398;2022-07-24T09:46:54;26.60;73.70
22002;DHT22;11165;51.278;12.398;2022-07-24T09:49:21;26.50;77.60
22002;DHT22;11165;51.278;12.398;2022-07-24T09:52:14;26.80;75.40
22002;DHT22;11165;51.278;12.398;2022-07-24T09:54:45;27.60;77.90
22002;DHT22;11165;51.278;12.398;2022-07-24T09:57:28;29.00;70.90
22002;DHT22;11165;51.278;12.398;2022-07-24T10:00:00;29.20;69.10
22002;DHT22;11165;51.278;12.398;2022-07-24T10:02:32;28.50;70.10
22002;DHT22;11165;51.278;12.398;2022-07-24T10:05:00;29.40;67.90
22002;DHT22;11165;51.278;12.398;2022-07-24T10:07:28;28.90;68.40
22002;DHT22;11165;51.278;12.398;2022-07-24T10:09:57;28.00;68.90
22002;DHT22;11165;51.278;12.398;2022-07-24T10:12:26;27.10;71.70
22002;DHT22;11165;51.278;12.398;2022-07-24T10:14:54;26.80;71.40
22002;DHT22;11165;51.278;12.398;2022-07-24T10:17:33;26.80;70.60
22002;DHT22;11165;51.278;12.398;2022-07-24T10:20:03;26.70;70.80
22002;DHT22;11165;51.278;12.398;2022-07-24T10:22:38;26.70;72.60
22002;DHT22;11165;51.278;12.398;2022-07-24T10:25:13;27.10;75.50
22002;DHT22;11165;51.278;12.398;2022-07-24T10:27:50;27.10;70.10
22002;DHT22;11165;51.278;12.398;2022-07-24T10:30:16;27.00;69.30
22002;DHT22;11165;51.278;12.398;2022-07-24T10:32:42;26.50;68.50
22002;DHT22;11165;51.278;12.398;2022-07-24T10:41:01;26.60;69.70
22002;DHT22;11165;51.278;12.398;2022-07-24T10:43:20;26.30;69.20
22002;DHT22;11165;51.278;12.398;2022-07-24T10:45:52;26.20;73.20
22002;DHT22;11165;51.278;12.398;2022-07-24T10:48:35;26.50;69.80
22002;DHT22;11165;51.278;12.398;2022-07-24T10:51:02;26.80;70.20
22002;DHT22;11165;51.278;12.398;2022-07-24T10:53:45;27.40;69.90
22002;DHT22;11165;51.278;12.398;2022-07-24T10:56:24;27.10;68.70
22002;DHT22;11165;51.278;12.398;2022-07-24T10:59:08;26.50;68.70
22002;DHT22;11165;51.278;12.398;2022-07-24T11:01:46;26.80;67.60
22002;DHT22;11165;51.278;12.398;2022-07-24T11:06:52;27.10;68.40
22002;DHT22;11165;51.278;12.398;2022-07-24T11:09:23;27.10;67.60
22002;DHT22;11165;51.278;12.398;2022-07-24T11:17:37;26.90;68.00
22002;DHT22;11165;51.278;12.398;2022-07-24T11:20:10;26.60;68.20
22002;DHT22;11165;51.278;12.398;2022-07-24T11:22:48;26.40;68.50
22002;DHT22;11165;51.278;12.398;2022-07-24T11:25:23;26.50;69.60
22002;DHT22;11165;51.278;12.398;2022-07-24T11:27:52;27.20;69.20
22002;DHT22;11165;51.278;12.398;2022-07-24T11:30:19;27.50;65.70
22002;DHT22;11165;51.278;12.398;2022-07-24T11:32:46;27.10;63.60
22002;DHT22;11165;51.278;12.398;2022-07-24T11:35:12;26.70;65.40
22002;DHT22;11165;51.278;12.398;2022-07-24T11:37:40;26.70;68.10
22002;DHT22;11165;51.278;12.398;2022-07-24T11:40:08;27.20;65.40
22002;DHT22;11165;51.278;12.398;2022-07-24T11:42:34;26.70;65.20
22002;DHT22;11165;51.278;12.398;2022-07-24T11:45:01;26.60;65.40
22002;DHT22;11165;51.278;12.398;2022-07-24T11:47:27;26.70;66.10
22002;DHT22;11165;51.278;12.398;2022-07-24T11:49:58;26.70;65.30
22002;DHT22;11165;51.278;12.398;2022-07-24T11:52:36;26.80;66.60
22002;DHT22;11165;51.278;12.398;2022-07-24T11:55:09;26.90;67.80
22002;DHT22;11165;51.278;12.398;2022-07-24T11:57:37;27.10;64.50
22002;DHT22;11165;51.278;12.398;2022-07-24T12:00:09;26.90;65.20
22002;DHT22;11165;51.278;12.398;2022-07-24T12:02:46;26.70;64.00
22002;DHT22;11165;51.278;12.398;2022-07-24T12:05:13;26.80;65.30
22002;DHT22;11165;51.278;12.398;2022-07-24T12:07:39;26.80;63.60
22002;DHT22;11165;51.278;12.398;2022-07-24T12:10:05;26.60;64.70
22002;DHT22;11165;51.278;12.398;2022-07-24T12:12:37;27.20;64.70
22002;DHT22;11165;51.278;12.398;2022-07-24T12:15:07;27.00;64.10
22002;DHT22;11165;51.278;12.398;2022-07-24T12:17:35;26.80;64.50
22002;DHT22;11165;51.278;12.398;2022-07-24T12:20:20;27.20;64.70
22002;DHT22;11165;51.278;12.398;2022-07-24T12:22:46;27.10;63.70
22002;DHT22;11165;51.278;12.398;2022-07-24T12:25:13;27.40;65.70
22002;DHT22;11165;51.278;12.398;2022-07-24T12:27:44;27.10;64.50
22002;DHT22;11165;51.278;12.398;2022-07-24T12:30:22;27.10;63.70
22002;DHT22;11165;51.278;12.398;2022-07-24T12:33:01;27.10;64.90
22002;DHT22;11165;51.278;12.398;2022-07-24T12:35:29;27.20;64.00
22002;DHT22;11165;51.278;12.398;2022-07-24T12:37:55;27.30;64.10
22002;DHT22;11165;51.278;12.398;2022-07-24T12:40:24;27.10;64.70
22002;DHT22;11165;51.278;12.398;2022-07-24T12:42:57;27.30;65.60
22002;DHT22;11165;51.278;12.398;2022-07-24T12:45:23;27.60;64.70
22002;DHT22;11165;51.278;12.398;2022-07-24T12:50:35;27.80;63.70
22002;DHT22;11165;51.278;12.398;2022-07-24T12:53:06;27.70;64.10
22002;DHT22;11165;51.278;12.398;2022-07-24T12:55:32;27.70;63.50
22002;DHT22;11165;51.278;12.398;2022-07-24T12:58:01;28.30;62.20
22002;DHT22;11165;51.278;12.398;2022-07-24T13:00:27;28.00;61.80
22002;DHT22;11165;51.278;12.398;2022-07-24T13:02:53;28.10;61.30
22002;DHT22;11165;51.278;12.398;2022-07-24T13:05:41;28.00;62.30
22002;DHT22;11165;51.278;12.398;2022-07-24T13:08:07;28.30;62.10
22002;DHT22;11165;51.278;12.398;2022-07-24T13:10:34;28.20;60.50
22002;DHT22;11165;51.278;12.398;2022-07-24T13:13:00;28.10;61.00
22002;DHT22;11165;51.278;12.398;2022-07-24T13:15:25;27.90;61.90
22002;DHT22;11165;51.278;12.398;2022-07-24T13:17:51;27.90;59.80
22002;DHT22;11165;51.278;12.398;2022-07-24T13:20:17;27.90;61.60
22002;DHT22;11165;51.278;12.398;2022-07-24T13:22:43;28.10;61.80
22002;DHT22;11165;51.278;12.398;2022-07-24T13:25:08;28.50;61.80
22002;DHT22;11165;51.278;12.398;2022-07-24T13:27:34;28.30;59.00
22002;DHT22;11165;51.278;12.398;2022-07-24T13:29:59;28.50;59.80
22002;DHT22;11165;51.278;12.398;2022-07-24T13:32:25;28.50;58.30
22002;DHT22;11165;51.278;12.398;2022-07-24T13:34:50;28.40;59.50
22002;DHT22;11165;51.278;12.398;2022-07-24T13:37:18;28.60;60.30
22002;DHT22;11165;51.278;12.398;2022-07-24T13:39:43;28.50;58.80
22002;DHT22;11165;51.278;12.398;2022-07-24T13:42:09;28.20;58.10
22002;DHT22;11165;51.278;12.398;2022-07-24T13:44:35;28.00;59.40
22002;DHT22;11165;51.278;12.398;2022-07-24T13:47:00;28.10;60.80
22002;DHT22;11165;51.278;12.398;2022-07-24T13:49:26;28.30;58.20
22002;DHT22;11165;51.278;12.398;2022-07-24T13:51:52;28.50;59.20
22002;DHT22;11165;51.278;12.398;2022-07-24T13:54:18;28.50;58.70
22002;DHT22;11165;51.278;12.398;2022-07-24T13:56:43;28.80;59.00
22002;DHT22;11165;51.278;12.398;2022-07-24T13:59:10;28.70;55.50
22002;DHT22;11165;51.278;12.398;2022-07-24T14:01:35;28.60;55.30
22002;DHT22;11165;51.278;12.398;2022-07-24T14:04:02;28.50;56.20
22002;DHT22;11165;51.278;12.398;2022-07-24T14:06:29;28.50;57.00
22002;DHT22;11165;51.278;12.398;2022-07-24T14:08:55;28.60;56.90
22002;DHT22;11165;51.278;12.398;2022-07-24T14:11:21;28.80;57.90
22002;DHT22;11165;51.278;12.398;2022-07-24T14:13:46;28.70;55.80
22002;DHT22;11165;51.278;12.398;2022-07-24T14:16:12;28.50;56.10
22002;DHT22;11165;51.278;12.398;2022-07-24T14:18:37;28.60;56.40
22002;DHT22;11165;51.278;12.398;2022-07-24T14:21:03;28.70;55.70
22002;DHT22;11165;51.278;12.398;2022-07-24T14:23:29;28.80;55.50
22002;DHT22;11165;51.278;12.398;2022-07-24T14:25:54;28.70;55.20
22002;DHT22;11165;51.278;12.398;2022-07-24T14:28:21;28.60;55.80
22002;DHT22;11165;51.278;12.398;2022-07-24T14:30:47;28.80;56.60
22002;DHT22;11165;51.278;12.398;2022-07-24T14:33:12;28.90;55.60
22002;DHT22;11165;51.278;12.398;2022-07-24T14:35:38;29.00;56.20
22002;DHT22;11165;51.278;12.398;2022-07-24T14:38:04;29.00;55.70
22002;DHT22;11165;51.278;12.398;2022-07-24T14:40:30;28.90;54.90
22002;DHT22;11165;51.278;12.398;2022-07-24T14:42:55;29.00;55.80
22002;DHT22;11165;51.278;12.398;2022-07-24T14:45:22;29.00;55.70
22002;DHT22;11165;51.278;12.398;2022-07-24T14:47:47;29.20;56.90
22002;DHT22;11165;51.278;12.398;2022-07-24T14:50:13;29.20;55.40
22002;DHT22;11165;51.278;12.398;2022-07-24T14:52:39;29.20;55.10
22002;DHT22;11165;51.278;12.398;2022-07-24T14:55:06;29.00;54.60
22002;DHT22;11165;51.278;12.398;2022-07-24T14:57:32;29.00;54.30
22002;DHT22;11165;51.278;12.398;2022-07-24T14:59:57;29.00;55.40
22002;DHT22;11165;51.278;12.398;2022-07-24T15:02:23;29.40;56.40
22002;DHT22;11165;51.278;12.398;2022-07-24T15:04:49;29.30;53.50
22002;DHT22;11165;51.278;12.398;2022-07-24T15:07:15;29.20;52.90
22002;DHT22;11165;51.278;12.398;2022-07-24T15:09:40;29.30;54.50
22002;DHT22;11165;51.278;12.398;2022-07-24T15:12:06;29.30;54.00
22002;DHT22;11165;51.278;12.398;2022-07-24T15:14:32;29.40;54.80
22002;DHT22;11165;51.278;12.398;2022-07-24T15:16:57;29.20;54.00
22002;DHT22;11165;51.278;12.398;2022-07-24T15:19:23;29.10;53.30
22002;DHT22;11165;51.278;12.398;2022-07-24T15:21:48;29.20;53.40
22002;DHT22;11165;51.278;12.398;2022-07-24T15:24:14;29.30;52.70
22002;DHT22;11165;51.278;12.398;2022-07-24T15:26:40;29.30;53.40
22002;DHT22;11165;51.278;12.398;2022-07-24T15:29:05;29.10;52.90
22002;DHT22;11165;51.278;12.398;2022-07-24T15:31:32;29.10;53.50